Time;durP1;ratioP1;P1;durP2;ratioP2;P2;SDS_P1;SDS_P2;PMS_P1;PMS_P2;Temp;Humidity;BMP_temperature;BMP_pressure;BME280_temperature;BME280_humidity;BME280_pressure;Samples;Min_cycle;Max_cycle;Signal;HPM_P1;HPM_P2
2021/10/07 00:00:15;;;;;;;7.57;3.33;;;11.00;99.90;;;;;;5033413;28;20044;-76
2021/10/07 00:02:41;;;;;;;6.47;3.17;;;11.10;99.90;;;;;;5032774;28;20033;-77
2021/10/07 00:05:09;;;;;;;8.13;3.00;;;11.10;99.90;;;;;;5034344;28;20034;-77
2021/10/07 00:07:35;;;;;;;9.80;3.83;;;11.00;99.90;;;;;;5034336;28;20029;-76
2021/10/07 00:10:03;;;;;;;6.97;3.80;;;11.00;99.90;;;;;;5034236;28;20117;-77
2021/10/07 00:12:28;;;;;;;14.70;4.47;;;11.00;99.90;;;;;;5034060;28;20434;-77
2021/10/07 00:14:54;;;;;;;10.35;4.43;;;11.00;99.90;;;;;;5034185;28;20083;-77
2021/10/07 00:17:20;;;;;;;6.85;3.35;;;11.00;99.90;;;;;;5032933;28;20080;-77
2021/10/07 00:19:46;;;;;;;12.93;4.15;;;11.00;99.90;;;;;;5049716;28;20033;-77
2021/10/07 00:22:11;;;;;;;8.52;3.65;;;11.00;99.90;;;;;;5033923;28;20372;-77
2021/10/07 00:24:37;;;;;;;12.65;4.47;;;11.00;99.90;;;;;;5034046;28;20102;-77
2021/10/07 00:27:04;;;;;;;9.10;4.00;;;10.90;99.90;;;;;;5034157;28;20065;-77
2021/10/07 00:29:42;;;;;;;10.57;3.35;;;10.90;99.90;;;;;;5033734;28;20091;-77
2021/10/07 00:32:13;;;;;;;11.73;4.07;;;10.90;99.90;;;;;;5049497;28;20038;-77
2021/10/07 00:37:21;;;;;;;10.05;4.10;;;11.00;99.90;;;;;;5032726;28;19920;-77
2021/10/07 00:39:47;;;;;;;9.32;3.40;;;11.10;99.90;;;;;;5032470;28;20084;-77
2021/10/07 00:42:13;;;;;;;7.90;3.60;;;11.10;99.90;;;;;;5032630;28;20057;-76
2021/10/07 00:44:39;;;;;;;8.48;3.42;;;11.10;99.90;;;;;;5032312;28;20120;-76
2021/10/07 00:47:07;;;;;;;6.65;3.33;;;11.20;99.90;;;;;;5015976;28;20037;-77
2021/10/07 00:49:38;;;;;;;10.10;3.90;;;11.20;99.90;;;;;;5033405;28;20032;-77
2021/10/07 00:52:05;;;;;;;;;;;11.10;99.90;;;;;;5033272;28;20120;-77
2021/10/07 00:54:32;;;;;;;10.25;3.55;;;11.10;99.90;;;;;;5033291;28;19920;-77
2021/10/07 00:57:00;;;;;;;12.20;3.60;;;11.10;99.90;;;;;;5031439;28;20082;-76
2021/10/07 00:59:26;;;;;;;6.30;3.40;;;11.10;99.90;;;;;;5032204;28;20037;-76
2021/10/07 01:01:52;;;;;;;12.13;4.10;;;11.10;99.90;;;;;;5032257;28;20124;-77
2021/10/07 01:04:18;;;;;;;8.52;3.22;;;11.20;99.90;;;;;;5032040;28;20033;-76
2021/10/07 01:06:44;;;;;;;7.30;3.85;;;11.20;99.90;;;;;;5033087;28;20083;-76
2021/10/07 01:09:10;;;;;;;8.15;4.25;;;11.30;99.90;;;;;;5033071;28;20029;-76
2021/10/07 01:11:38;;;;;;;11.85;3.63;;;11.30;99.90;;;;;;5048396;28;20036;-76
2021/10/07 01:14:04;;;;;;;6.30;3.72;;;11.20;99.90;;;;;;5031767;28;20026;-77
2021/10/07 01:16:30;;;;;;;8.32;3.45;;;11.10;99.90;;;;;;5033146;28;20038;-77
2021/10/07 01:18:55;;;;;;;8.90;3.17;;;11.20;99.90;;;;;;5032578;28;20517;-77
2021/10/07 01:21:22;;;;;;;9.25;3.35;;;11.40;99.90;;;;;;5032772;28;20069;-77
2021/10/07 01:23:49;;;;;;;11.25;3.45;;;11.40;99.90;;;;;;5031780;28;20474;-77
2021/10/07 01:26:19;;;;;;;6.13;2.65;;;11.40;99.90;;;;;;5031885;28;20022;-76
2021/10/07 01:28:50;;;;;;;9.48;2.90;;;11.50;99.90;;;;;;5032916;28;20033;-77
2021/10/07 01:31:17;;;;;;;8.43;3.28;;;11.50;99.90;;;;;;5032856;28;20029;-76
2021/10/07 01:33:43;;;;;;;7.80;3.00;;;11.50;99.90;;;;;;5048157;28;20045;-77
2021/10/07 01:36:09;;;;;;;7.53;4.35;;;11.50;99.90;;;;;;5032753;28;20072;-76
2021/10/07 01:38:36;;;;;;;7.57;3.67;;;11.50;99.90;;;;;;5031474;28;20133;-77
2021/10/07 01:41:02;;;;;;;7.70;3.08;;;11.50;99.90;;;;;;5032779;28;20108;-76
2021/10/07 01:43:28;;;;;;;8.85;3.35;;;11.50;99.90;;;;;;5031574;28;20037;-76
2021/10/07 01:45:54;;;;;;;8.82;3.60;;;11.40;99.90;;;;;;5047859;28;20090;-76
2021/10/07 01:48:20;;;;;;;10.52;4.03;;;11.40;99.90;;;;;;5032655;28;20052;-76
2021/10/07 01:50:46;;;;;;;10.23;4.55;;;11.40;99.90;;;;;;5032578;28;20022;-76
2021/10/07 01:53:11;;;;;;;10.65;4.50;;;11.40;99.90;;;;;;5032233;28;20060;-76
2021/10/07 01:55:37;;;;;;;9.00;4.65;;;11.30;99.90;;;;;;5032182;28;20061;-76
2021/10/07 01:58:04;;;;;;;8.93;4.50;;;11.30;99.90;;;;;;5031078;28;20045;-77
2021/10/07 02:00:30;;;;;;;11.70;4.15;;;11.30;99.90;;;;;;5032226;28;20435;-77
2021/10/07 02:02:56;;;;;;;11.07;4.60;;;11.40;99.90;;;;;;5032092;28;20140;-76
2021/10/07 02:05:21;;;;;;;9.95;4.40;;;11.30;99.90;;;;;;5032269;28;20104;-76
2021/10/07 02:07:47;;;;;;;13.38;5.70;;;11.30;99.90;;;;;;5031888;28;20021;-76
2021/10/07 02:10:16;;;;;;;8.82;4.38;;;11.30;99.90;;;;;;5030893;28;20037;-76
2021/10/07 02:12:45;;;;;;;8.10;4.47;;;11.20;99.90;;;;;;5032114;28;20544;-77
2021/10/07 02:15:12;;;;;;;9.13;5.18;;;11.20;99.90;;;;;;5031232;28;20056;-77
2021/10/07 02:17:38;;;;;;;10.43;5.05;;;11.10;99.90;;;;;;5032133;28;20060;-77
2021/10/07 02:20:09;;;;;;;11.00;5.57;;;11.10;99.90;;;;;;5030936;28;20034;-77
2021/10/07 02:22:39;;;;;;;17.83;7.80;;;11.10;99.90;;;;;;5032083;28;20036;-77
2021/10/07 02:25:07;;;;;;;10.30;5.50;;;11.00;99.90;;;;;;5032321;28;20041;-77
2021/10/07 02:27:32;;;;;;;18.88;6.13;;;11.00;99.90;;;;;;5032285;28;20041;-76
2021/10/07 02:29:58;;;;;;;11.07;6.10;;;10.90;99.90;;;;;;5047213;28;20037;-75
2021/10/07 02:32:24;;;;;;;9.27;6.07;;;10.90;99.90;;;;;;5031854;28;20026;-76
2021/10/07 02:34:50;;;;;;;12.27;6.22;;;11.00;99.90;;;;;;5031730;28;20029;-74
2021/10/07 02:37:15;;;;;;;12.73;6.45;;;10.90;99.90;;;;;;5032063;28;20041;-75
2021/10/07 02:39:41;;;;;;;15.50;6.38;;;10.90;99.90;;;;;;5031798;28;20429;-75
2021/10/07 02:42:07;;;;;;;11.55;6.20;;;10.90;99.90;;;;;;5031963;28;20045;-76
2021/10/07 02:44:33;;;;;;;13.73;6.20;;;10.90;99.90;;;;;;5030909;28;20519;-74
2021/10/07 02:46:59;;;;;;;13.95;5.78;;;11.00;99.90;;;;;;5031985;28;20053;-75
2021/10/07 02:49:25;;;;;;;14.43;6.18;;;11.00;99.90;;;;;;5032089;28;20026;-76
2021/10/07 02:51:51;;;;;;;10.35;5.30;;;11.00;99.90;;;;;;5030736;28;20033;-75
2021/10/07 02:54:16;;;;;;;15.55;5.97;;;11.00;99.90;;;;;;5032086;28;20117;-76
2021/10/07 02:56:42;;;;;;;10.95;5.63;;;11.00;99.90;;;;;;5031602;28;20033;-76
2021/10/07 02:59:08;;;;;;;11.98;5.72;;;11.00;99.90;;;;;;5031985;28;20026;-76
2021/10/07 03:01:33;;;;;;;7.85;5.82;;;11.00;99.90;;;;;;5032033;28;20087;-75
2021/10/07 03:03:59;;;;;;;17.40;6.80;;;11.00;99.90;;;;;;5031626;28;20037;-76
2021/10/07 03:06:25;;;;;;;18.90;7.63;;;11.00;99.90;;;;;;5030511;28;20025;-76
2021/10/07 03:08:51;;;;;;;20.00;8.32;;;11.00;99.90;;;;;;5031758;28;20041;-76
2021/10/07 03:11:17;;;;;;;17.42;8.80;;;10.90;99.90;;;;;;5031677;28;20028;-75
2021/10/07 03:13:42;;;;;;;17.05;8.65;;;11.00;99.90;;;;;;5031583;28;20049;-76
2021/10/07 03:16:08;;;;;;;18.48;7.60;;;11.00;99.90;;;;;;5031659;28;20021;-76
2021/10/07 03:18:34;;;;;;;13.65;8.02;;;11.00;99.90;;;;;;5030080;28;20041;-76
2021/10/07 03:21:00;;;;;;;11.80;7.07;;;11.00;99.90;;;;;;5034436;28;20448;-75
2021/10/07 03:23:26;;;;;;;21.92;8.07;;;11.00;99.90;;;;;;5035003;28;20033;-75
2021/10/07 03:25:51;;;;;;;17.45;7.82;;;11.00;99.90;;;;;;5034820;28;20087;-74
2021/10/07 03:28:17;;;;;;;11.88;7.00;;;11.10;99.90;;;;;;5035001;28;20132;-74
2021/10/07 03:30:43;;;;;;;14.73;6.50;;;11.20;99.90;;;;;;5033470;28;20398;-74
2021/10/07 03:33:10;;;;;;;11.13;5.80;;;11.30;99.90;;;;;;5035209;28;20036;-74
2021/10/07 03:35:37;;;;;;;11.25;6.05;;;11.30;99.90;;;;;;5034923;28;20034;-74
2021/10/07 03:38:04;;;;;;;12.25;5.70;;;11.30;99.90;;;;;;5033362;28;20041;-74
2021/10/07 03:40:31;;;;;;;10.65;6.18;;;11.30;99.90;;;;;;5033499;28;20073;-74
2021/10/07 03:42:57;;;;;;;11.70;6.85;;;11.20;99.90;;;;;;5034373;28;20026;-74
2021/10/07 03:45:23;;;;;;;19.95;7.60;;;11.10;99.90;;;;;;5034672;28;20031;-74
2021/10/07 03:47:49;;;;;;;15.13;7.80;;;11.00;99.90;;;;;;5033595;28;20045;-74
2021/10/07 03:50:15;;;;;;;10.60;7.47;;;11.00;99.90;;;;;;5006325;28;20030;-73
2021/10/07 03:52:41;;;;;;;11.65;7.05;;;11.00;99.90;;;;;;5030695;28;20551;-73
2021/10/07 03:55:07;;;;;;;14.00;7.60;;;10.90;99.90;;;;;;5034286;28;20029;-73
2021/10/07 03:57:33;;;;;;;11.80;7.20;;;11.00;99.90;;;;;;5045793;28;20035;-73
2021/10/07 03:59:59;;;;;;;13.88;7.95;;;11.00;99.90;;;;;;5069692;28;20495;-74
2021/10/07 04:02:25;;;;;;;14.93;7.75;;;11.10;99.90;;;;;;5054191;28;20036;-74
2021/10/07 04:04:51;;;;;;;14.35;7.43;;;11.20;99.90;;;;;;5054311;28;20025;-73
2021/10/07 04:07:17;;;;;;;13.18;7.63;;;11.20;99.90;;;;;;5047798;28;20407;-76
2021/10/07 04:09:43;;;;;;;16.45;8.20;;;11.30;99.90;;;;;;5058249;28;20113;-74
2021/10/07 04:12:09;;;;;;;14.70;7.55;;;11.30;99.90;;;;;;5039975;28;20498;-74
2021/10/07 04:14:35;;;;;;;12.15;7.90;;;11.30;99.90;;;;;;5069095;28;20217;-78
2021/10/07 04:17:01;;;;;;;14.57;7.95;;;11.30;99.90;;;;;;5064272;28;20095;-78
2021/10/07 04:19:26;;;;;;;19.73;8.75;;;11.40;99.90;;;;;;5044841;28;20123;-78
2021/10/07 04:21:52;;;;;;;15.15;7.78;;;11.40;99.90;;;;;;5053427;28;20041;-78
2021/10/07 04:24:18;;;;;;;16.90;8.23;;;11.40;99.90;;;;;;5053790;28;20040;-77
2021/10/07 04:26:44;;;;;;;17.50;8.57;;;11.40;99.90;;;;;;5053943;28;20028;-78
2021/10/07 04:29:09;;;;;;;14.10;8.55;;;11.40;99.90;;;;;;5068941;28;20052;-78
2021/10/07 04:31:37;;;;;;;13.02;8.40;;;11.40;99.90;;;;;;5050948;28;20025;-77
2021/10/07 04:34:05;;;;;;;17.05;8.98;;;11.30;99.90;;;;;;5068597;28;20568;-77
2021/10/07 04:36:31;;;;;;;18.63;8.80;;;11.20;99.90;;;;;;5053510;28;20029;-77
2021/10/07 04:38:57;;;;;;;20.42;9.45;;;11.20;99.90;;;;;;5052146;28;20485;-77
2021/10/07 04:41:23;;;;;;;16.85;9.50;;;11.20;99.90;;;;;;5053256;28;20029;-77
2021/10/07 04:43:48;;;;;;;16.65;9.60;;;11.10;99.90;;;;;;5053043;28;20037;-77
2021/10/07 04:46:18;;;;;;;19.65;10.10;;;11.20;99.90;;;;;;5052413;28;20029;-79
2021/10/07 04:48:45;;;;;;;15.75;9.18;;;11.20;99.90;;;;;;5052442;28;20037;-80
2021/10/07 04:51:11;;;;;;;17.98;9.43;;;11.20;99.90;;;;;;5053131;28;20025;-79
2021/10/07 04:53:36;;;;;;;20.02;10.80;;;11.30;99.90;;;;;;5051959;28;20139;-79
2021/10/07 04:56:03;;;;;;;30.48;17.23;;;11.30;99.90;;;;;;5068817;28;20044;-79
2021/10/07 04:58:28;;;;;;;21.20;10.45;;;11.30;99.90;;;;;;5051984;28;20481;-78
2021/10/07 05:00:54;;;;;;;14.80;8.27;;;11.30;99.90;;;;;;5053113;28;20043;-77
2021/10/07 05:03:20;;;;;;;12.82;7.88;;;11.30;99.90;;;;;;5052885;28;20048;-77
2021/10/07 05:05:46;;;;;;;18.08;8.57;;;11.30;99.90;;;;;;5052676;28;20495;-78
2021/10/07 05:08:12;;;;;;;13.95;8.20;;;11.40;99.90;;;;;;5037814;28;20100;-78
2021/10/07 05:10:38;;;;;;;14.27;7.00;;;11.30;99.90;;;;;;5032569;28;20493;-77
2021/10/07 05:13:06;;;;;;;15.40;7.00;;;11.30;99.90;;;;;;5031490;28;20037;-73
2021/10/07 05:15:31;;;;;;;12.73;6.70;;;11.40;99.90;;;;;;5031871;28;20042;-73
2021/10/07 05:17:57;;;;;;;14.68;6.47;;;11.40;99.90;;;;;;5032649;28;20075;-74
2021/10/07 05:20:23;;;;;;;11.77;6.70;;;11.40;99.90;;;;;;5031667;28;20029;-74
2021/10/07 05:22:49;;;;;;;12.02;7.28;;;11.40;99.90;;;;;;5032327;28;20033;-74
2021/10/07 05:25:15;;;;;;;9.73;6.65;;;11.40;99.90;;;;;;5048356;28;20032;-72
2021/10/07 05:27:41;;;;;;;27.67;17.02;;;11.40;99.90;;;;;;5032951;28;20079;-73
2021/10/07 05:30:09;;;;;;;11.18;7.53;;;11.70;99.90;;;;;;5039641;28;20037;-73
2021/10/07 05:32:35;;;;;;;23.70;12.52;;;11.60;99.90;;;;;;5067949;28;20044;-73
2021/10/07 05:35:02;;;;;;;22.95;11.65;;;11.60;99.90;;;;;;5050126;28;20025;-74
2021/10/07 05:37:29;;;;;;;14.68;7.22;;;11.50;99.90;;;;;;5051104;28;20123;-73
2021/10/07 05:39:55;;;;;;;12.32;8.52;;;11.40;99.90;;;;;;5050449;28;20032;-73
2021/10/07 05:42:21;;;;;;;15.02;8.32;;;11.40;99.90;;;;;;5052149;28;20605;-73
2021/10/07 05:44:47;;;;;;;13.65;8.10;;;11.40;99.90;;;;;;5051966;28;20112;-73
2021/10/07 05:47:13;;;;;;;18.27;8.43;;;11.50;99.90;;;;;;5052239;28;20436;-73
2021/10/07 05:49:38;;;;;;;18.85;9.20;;;11.40;99.90;;;;;;5051243;28;20036;-73
2021/10/07 05:52:05;;;;;;;15.57;8.52;;;11.60;99.90;;;;;;5052184;28;20037;-73
2021/10/07 05:54:32;;;;;;;12.77;8.02;;;11.60;99.90;;;;;;5050919;28;20669;-73
2021/10/07 05:56:58;;;;;;;34.25;19.08;;;11.70;99.90;;;;;;5050783;28;20037;-73
2021/10/07 05:59:23;;;;;;;21.80;9.85;;;11.60;99.90;;;;;;5052428;28;20547;-73
2021/10/07 06:01:50;;;;;;;18.20;8.25;;;11.70;99.90;;;;;;5050595;28;20059;-73
2021/10/07 06:04:17;;;;;;;17.20;8.93;;;11.70;99.90;;;;;;5050553;28;20459;-73
2021/10/07 06:06:45;;;;;;;14.73;8.25;;;11.80;99.90;;;;;;5052054;28;20044;-73
2021/10/07 06:09:12;;;;;;;16.27;8.38;;;11.70;99.90;;;;;;5051384;28;20102;-73
2021/10/07 06:11:39;;;;;;;15.30;8.27;;;11.80;99.90;;;;;;5050675;28;20078;-73
2021/10/07 06:14:06;;;;;;;14.55;7.57;;;11.80;99.90;;;;;;5052080;28;20082;-73
2021/10/07 06:16:34;;;;;;;13.18;8.52;;;11.80;99.90;;;;;;5052388;28;20040;-73
2021/10/07 06:19:03;;;;;;;15.65;8.85;;;11.80;99.90;;;;;;5051699;28;20041;-72
2021/10/07 06:21:30;;;;;;;15.60;9.50;;;11.80;99.90;;;;;;5067393;28;20509;-72
2021/10/07 06:23:56;;;;;;;13.13;8.63;;;11.80;99.90;;;;;;5047186;28;20056;-76
2021/10/07 06:26:23;;;;;;;20.35;9.85;;;11.70;99.90;;;;;;5030748;28;20032;-72
2021/10/07 06:28:49;;;;;;;17.15;9.10;;;11.70;99.90;;;;;;5032039;28;20041;-72
2021/10/07 06:31:16;;;;;;;19.50;9.65;;;11.70;99.90;;;;;;5032297;28;20029;-72
2021/10/07 06:33:42;;;;;;;18.33;9.50;;;11.80;99.90;;;;;;5030837;28;20379;-72
2021/10/07 06:36:08;;;;;;;15.82;9.40;;;11.80;99.90;;;;;;5031910;28;20025;-73
2021/10/07 06:38:34;;;;;;;20.38;10.13;;;11.90;99.90;;;;;;5031721;28;20040;-73
2021/10/07 06:41:00;;;;;;;14.80;9.98;;;11.90;99.90;;;;;;5031779;28;20041;-73
2021/10/07 06:43:26;;;;;;;22.40;10.77;;;11.80;99.90;;;;;;5031640;28;20159;-73
2021/10/07 06:45:52;;;;;;;18.20;10.57;;;11.70;99.90;;;;;;5030392;28;20034;-73
2021/10/07 06:48:18;;;;;;;16.58;9.98;;;11.70;99.90;;;;;;5032085;28;20033;-73
2021/10/07 06:50:44;;;;;;;17.88;10.55;;;11.70;99.90;;;;;;5031639;28;20064;-74
2021/10/07 06:53:10;;;;;;;16.92;9.77;;;11.70;99.90;;;;;;5030348;28;20394;-75
2021/10/07 06:55:37;;;;;;;15.00;10.25;;;11.70;99.90;;;;;;5033185;28;20462;-75
2021/10/07 06:58:04;;;;;;;15.60;10.43;;;11.70;99.90;;;;;;5035730;28;20041;-74
2021/10/07 07:00:31;;;;;;;24.50;13.05;;;11.70;99.90;;;;;;5035552;28;20054;-74
2021/10/07 07:02:58;;;;;;;20.55;10.15;;;11.70;99.90;;;;;;5035206;28;20034;-74
2021/10/07 07:05:26;;;;;;;15.27;9.57;;;11.60;99.90;;;;;;5035794;28;20033;-74
2021/10/07 07:07:52;;;;;;;22.80;9.88;;;11.70;99.90;;;;;;5034077;28;20044;-74
2021/10/07 07:10:18;;;;;;;16.80;9.43;;;11.70;99.90;;;;;;5033970;28;20041;-74
2021/10/07 07:12:46;;;;;;;16.17;9.93;;;11.90;99.90;;;;;;5035254;28;20501;-74
2021/10/07 07:15:12;;;;;;;14.65;10.50;;;11.80;99.90;;;;;;5050179;28;20041;-74
2021/10/07 07:17:38;;;;;;;18.27;10.23;;;11.90;99.90;;;;;;5035065;28;20068;-75
2021/10/07 07:20:05;;;;;;;14.73;10.13;;;11.90;99.90;;;;;;5034071;28;20037;-74
2021/10/07 07:22:31;;;;;;;22.00;11.20;;;11.90;99.90;;;;;;5050390;28;20030;-74
2021/10/07 07:24:57;;;;;;;17.75;11.07;;;11.90;99.90;;;;;;5034827;28;20025;-73
2021/10/07 07:27:23;;;;;;;18.73;10.55;;;12.00;99.90;;;;;;5034103;28;20033;-73
2021/10/07 07:29:49;;;;;;;22.67;10.68;;;12.00;99.90;;;;;;5034901;28;20040;-73
2021/10/07 07:32:16;;;;;;;16.15;10.30;;;12.00;99.90;;;;;;5033709;28;20529;-73
2021/10/07 07:34:42;;;;;;;14.73;9.80;;;12.00;99.90;;;;;;5033895;28;20029;-73
2021/10/07 07:37:07;;;;;;;17.35;10.20;;;12.00;99.90;;;;;;5034354;28;20113;-73
2021/10/07 07:39:34;;;;;;;22.10;11.52;;;12.20;99.90;;;;;;5033366;28;20021;-73
2021/10/07 07:42:00;;;;;;;17.48;9.82;;;12.20;99.90;;;;;;5034951;28;20041;-74
2021/10/07 07:44:27;;;;;;;12.93;9.13;;;12.20;99.90;;;;;;5060090;28;20021;-73
2021/10/07 07:46:54;;;;;;;18.23;10.30;;;12.30;99.90;;;;;;5034711;28;20076;-74
2021/10/07 07:49:20;;;;;;;15.90;10.13;;;12.50;99.90;;;;;;5049998;28;20043;-75
2021/10/07 07:51:46;;;;;;;17.95;9.70;;;12.40;99.90;;;;;;5034483;28;20030;-76
2021/10/07 07:54:12;;;;;;;15.85;9.55;;;12.40;99.90;;;;;;5033224;28;20060;-76
2021/10/07 07:56:38;;;;;;;18.02;9.57;;;12.40;99.90;;;;;;5066616;28;20462;-73
2021/10/07 07:59:07;;;;;;;14.18;10.00;;;12.50;99.90;;;;;;5054273;28;20033;-73
2021/10/07 08:01:34;;;;;;;22.50;10.27;;;12.70;99.90;;;;;;5069497;28;20025;-73
2021/10/07 08:04:00;;;;;;;15.52;10.00;;;12.70;99.90;;;;;;5054160;28;20037;-73
2021/10/07 08:06:26;;;;;;;14.63;9.93;;;12.70;99.90;;;;;;5069184;28;20033;-73
2021/10/07 08:08:52;;;;;;;17.48;8.93;;;12.80;99.90;;;;;;5049099;28;20116;-72
2021/10/07 08:11:19;;;;;;;16.58;8.25;;;13.10;99.90;;;;;;5034243;28;20025;-72
2021/10/07 08:13:45;;;;;;;14.10;8.90;;;13.10;99.90;;;;;;5049625;28;20171;-72
2021/10/07 08:16:10;;;;;;;20.25;8.75;;;13.40;99.90;;;;;;5034087;28;20120;-73
2021/10/07 08:18:36;;;;;;;22.17;8.45;;;13.40;99.90;;;;;;5032565;28;20056;-72
2021/10/07 08:21:02;;;;;;;18.88;8.77;;;13.40;99.90;;;;;;5049182;28;20034;-72
2021/10/07 08:23:29;;;;;;;15.65;8.45;;;13.30;99.90;;;;;;5034333;28;20037;-73
2021/10/07 08:25:56;;;;;;;14.43;8.45;;;13.10;99.90;;;;;;5049160;28;20607;-73
2021/10/07 08:28:22;;;;;;;16.25;8.15;;;13.10;99.90;;;;;;5049279;28;20038;-73
2021/10/07 08:30:49;;;;;;;15.75;8.32;;;13.30;99.90;;;;;;5034202;28;20037;-73
2021/10/07 08:33:15;;;;;;;13.60;7.57;;;13.50;99.90;;;;;;5033776;28;20040;-74
2021/10/07 08:35:41;;;;;;;14.50;7.68;;;13.60;99.90;;;;;;5033965;28;20025;-74
2021/10/07 08:38:08;;;;;;;15.32;8.15;;;13.70;99.90;;;;;;5033824;28;20033;-73
2021/10/07 08:40:34;;;;;;;12.30;7.35;;;13.60;99.90;;;;;;5033700;28;20088;-74
2021/10/07 08:43:00;;;;;;;18.27;8.02;;;13.60;99.90;;;;;;5048911;28;20669;-75
2021/10/07 08:45:29;;;;;;;15.85;7.07;;;13.60;99.90;;;;;;5049041;28;20036;-74
2021/10/07 08:47:56;;;;;;;10.75;6.43;;;13.60;99.90;;;;;;5048534;28;20033;-74
2021/10/07 08:50:22;;;;;;;9.65;6.15;;;13.60;99.90;;;;;;5049017;28;20064;-74
2021/10/07 08:52:49;;;;;;;13.15;7.22;;;13.70;99.90;;;;;;5048996;28;20033;-74
2021/10/07 08:55:15;;;;;;;14.65;8.35;;;13.80;99.90;;;;;;5048556;28;20029;-74
2021/10/07 08:57:41;;;;;;;17.27;6.93;;;13.90;99.90;;;;;;5033066;28;20033;-75
2021/10/07 09:00:13;;;;;;;11.30;6.13;;;13.80;99.90;;;;;;5033410;28;20022;-74
2021/10/07 09:02:40;;;;;;;9.50;5.72;;;13.90;99.90;;;;;;5033569;28;20661;-74
2021/10/07 09:05:09;;;;;;;12.32;7.72;;;14.00;99.90;;;;;;5048436;28;20075;-75
2021/10/07 09:07:52;;;;;;;12.18;7.40;;;13.80;99.90;;;;;;5033084;28;20030;-75
2021/10/07 09:10:17;;;;;;;14.05;9.05;;;13.60;99.90;;;;;;5032901;28;20506;-75
2021/10/07 09:13:25;;;;;;;11.20;6.60;;;13.70;99.90;;;;;;5033304;28;20116;-75
2021/10/07 09:15:59;;;;;;;11.52;5.90;;;13.80;99.90;;;;;;5033038;28;20033;-75
2021/10/07 09:18:27;;;;;;;12.13;6.43;;;14.00;99.90;;;;;;5047451;28;20052;-75
2021/10/07 09:20:59;;;;;;;10.32;6.03;;;14.30;99.90;;;;;;5048422;28;20029;-75
2021/10/07 09:23:34;;;;;;;10.05;5.30;;;14.50;99.90;;;;;;5031545;28;20030;-75
2021/10/07 09:26:10;;;;;;;8.82;4.78;;;14.20;99.90;;;;;;5048173;28;20038;-75
2021/10/07 09:28:53;;;;;;;10.05;4.78;;;14.50;99.90;;;;;;5032628;28;20484;-75
2021/10/07 09:31:32;;;;;;;7.43;4.25;;;14.60;99.90;;;;;;5048161;28;20037;-75
2021/10/07 09:34:05;;;;;;;6.63;4.22;;;14.50;99.90;;;;;;5047878;28;20040;-76
2021/10/07 09:36:31;;;;;;;10.27;5.03;;;14.30;99.90;;;;;;5048142;28;20060;-76
2021/10/07 09:38:59;;;;;;;10.20;5.68;;;14.40;99.90;;;;;;5047744;28;20025;-76
2021/10/07 09:41:31;;;;;;;6.82;4.00;;;14.30;99.90;;;;;;5032823;28;20029;-76
2021/10/07 09:44:07;;;;;;;10.13;4.90;;;14.40;99.90;;;;;;5032499;28;20033;-76
2021/10/07 09:46:48;;;;;;;8.88;4.97;;;14.60;99.90;;;;;;5047971;28;20029;-76
2021/10/07 09:49:33;;;;;;;9.73;5.03;;;14.80;99.90;;;;;;5031018;28;20037;-77
2021/10/07 09:52:01;;;;;;;13.05;5.18;;;14.70;99.90;;;;;;5032365;28;20629;-76
2021/10/07 09:54:35;;;;;;;7.88;5.18;;;14.80;99.90;;;;;;5032134;28;20033;-77
2021/10/07 09:57:03;;;;;;;6.40;3.80;;;15.10;99.90;;;;;;5047235;28;20056;-77
2021/10/07 09:59:33;;;;;;;9.73;4.30;;;15.40;99.90;;;;;;5032481;28;20029;-76
2021/10/07 10:01:59;;;;;;;9.30;4.40;;;15.50;99.90;;;;;;5047441;28;20078;-77
2021/10/07 10:04:28;;;;;;;7.22;4.47;;;15.50;99.90;;;;;;5067015;28;20032;-77
2021/10/07 10:06:54;;;;;;;9.23;4.63;;;15.80;99.90;;;;;;5067549;28;20062;-76
2021/10/07 10:09:26;;;;;;;7.15;4.10;;;15.70;99.90;;;;;;5050622;28;20407;-77
2021/10/07 10:11:53;;;;;;;7.45;3.90;;;15.90;99.90;;;;;;5051548;28;20025;-76
2021/10/07 10:14:21;;;;;;;5.78;3.85;;;16.40;99.90;;;;;;5050978;28;20029;-77
2021/10/07 10:16:47;;;;;;;7.90;3.85;;;16.50;99.90;;;;;;5051531;28;20389;-76
2021/10/07 10:19:14;;;;;;;6.55;3.05;;;17.10;99.90;;;;;;5034481;28;20112;-77
2021/10/07 10:21:41;;;;;;;6.97;3.17;;;17.40;99.90;;;;;;5050731;28;20054;-77
2021/10/07 10:24:11;;;;;;;5.28;2.83;;;17.70;99.90;;;;;;5067250;28;20398;-77
2021/10/07 10:26:39;;;;;;;4.60;3.05;;;17.20;99.90;;;;;;5051770;28;20035;-76
2021/10/07 10:29:22;;;;;;;6.35;2.83;;;17.20;99.90;;;;;;5051713;28;20033;-77
2021/10/07 10:31:53;;;;;;;5.40;3.25;;;16.90;99.90;;;;;;5055101;28;20032;-77
2021/10/07 10:34:22;;;;;;;5.80;2.50;;;16.70;99.90;;;;;;5055958;28;20029;-76
2021/10/07 10:36:58;;;;;;;5.22;3.45;;;16.60;99.90;;;;;;5055821;28;20493;-77
2021/10/07 10:39:34;;;;;;;5.18;2.88;;;16.30;99.90;;;;;;5055882;28;20039;-76
2021/10/07 10:42:03;;;;;;;7.20;3.35;;;16.30;99.90;;;;;;5054462;28;20068;-76
2021/10/07 10:44:57;;;;;;;7.55;4.30;;;16.60;99.90;;;;;;5055739;28;20029;-77
2021/10/07 10:47:32;;;;;;;10.27;5.65;;;16.80;99.90;;;;;;5055769;28;20036;-76
2021/10/07 10:50:13;;;;;;;9.50;5.40;;;16.20;99.90;;;;;;5055587;28;20462;-76
2021/10/07 10:52:53;;;;;;;13.18;7.55;;;16.70;99.90;;;;;;5054235;28;20454;-76
2021/10/07 10:55:23;;;;;;;7.65;5.13;;;16.80;99.90;;;;;;5055584;28;20489;-76
2021/10/07 10:58:06;;;;;;;7.93;5.15;;;17.30;99.90;;;;;;5055615;28;20072;-76
2021/10/07 11:00:36;;;;;;;10.15;5.28;;;17.70;99.90;;;;;;5071052;28;20048;-76
2021/10/07 11:03:08;;;;;;;5.82;3.67;;;17.60;99.90;;;;;;5054048;28;20037;-76
2021/10/07 11:05:41;;;;;;;7.35;3.00;;;17.50;99.90;;;;;;5055435;28;20120;-76
2021/10/07 11:08:19;;;;;;;4.00;2.90;;;17.60;99.90;;;;;;5055106;28;20056;-76
2021/10/07 11:10:50;;;;;;;4.38;2.95;;;17.50;99.90;;;;;;5055272;28;20054;-76
2021/10/07 11:13:31;;;;;;;5.65;2.78;;;17.50;99.90;;;;;;5053656;28;20378;-76
2021/10/07 11:16:01;;;;;;;7.47;2.75;;;17.10;99.90;;;;;;5054170;28;20029;-75
2021/10/07 11:18:38;;;;;;;5.70;2.70;;;17.10;99.90;;;;;;5054435;28;20124;-75
2021/10/07 11:21:16;;;;;;;3.22;1.85;;;17.80;99.90;;;;;;5054397;28;20139;-75
2021/10/07 11:23:50;;;;;;;4.72;2.15;;;18.00;99.90;;;;;;5053752;28;20029;-75
2021/10/07 11:26:18;;;;;;;5.95;2.25;;;17.80;99.90;;;;;;5053973;28;20033;-75
2021/10/07 11:28:47;;;;;;;5.25;3.05;;;18.50;99.90;;;;;;5053425;28;20386;-76
2021/10/07 11:31:18;;;;;;;5.03;2.50;;;17.70;99.90;;;;;;5054903;28;20545;-77
2021/10/07 11:33:51;;;;;;;;;;;18.60;99.90;;;;;;5055472;28;20500;-76
2021/10/07 11:36:28;;;;;;;4.22;2.40;;;19.40;99.90;;;;;;5054826;28;20045;-73
2021/10/07 11:38:55;;;;;;;4.95;2.55;;;19.20;99.80;;;;;;5054946;28;20053;-77
2021/10/07 11:41:28;;;;;;;4.40;2.15;;;19.30;99.90;;;;;;5053716;28;20087;-74
2021/10/07 11:43:58;;;;;;;4.78;2.45;;;19.60;99.80;;;;;;5037785;28;20036;-74
2021/10/07 11:46:24;;;;;;;3.58;2.08;;;20.70;99.00;;;;;;5054678;28;20071;-74
2021/10/07 11:48:54;;;;;;;4.68;2.30;;;22.00;95.50;;;;;;5054393;28;20509;-74
2021/10/07 11:51:28;;;;;;;3.10;2.30;;;20.30;96.80;;;;;;5053432;28;20033;-74
2021/10/07 11:53:55;;;;;;;5.28;2.28;;;19.00;98.50;;;;;;5054382;28;20044;-74
2021/10/07 11:56:28;;;;;;;4.43;1.40;;;18.90;99.20;;;;;;5052977;28;20524;-74
2021/10/07 11:59:00;;;;;;;3.45;1.80;;;19.10;99.50;;;;;;5054067;28;20355;-74
2021/10/07 12:01:33;;;;;;;3.78;1.67;;;19.40;99.70;;;;;;5053093;28;20482;-74
2021/10/07 12:04:03;;;;;;;2.35;1.27;;;19.80;98.30;;;;;;5053141;28;20032;-75
2021/10/07 12:06:35;;;;;;;2.45;1.15;;;20.60;97.20;;;;;;5053992;28;20039;-75
2021/10/07 12:09:02;;;;;;;4.32;1.52;;;20.70;95.60;;;;;;5054171;28;20452;-75
2021/10/07 12:11:33;;;;;;;2.25;1.00;;;20.00;97.10;;;;;;5054113;28;20439;-74
2021/10/07 12:14:03;;;;;;;2.20;1.30;;;19.80;97.20;;;;;;5052623;28;20029;-75
2021/10/07 12:16:38;;;;;;;2.30;1.10;;;19.80;97.30;;;;;;5053502;28;20091;-75
2021/10/07 12:19:08;;;;;;;2.80;1.60;;;19.20;97.80;;;;;;5052762;28;20049;-74
2021/10/07 12:21:38;;;;;;;4.40;1.52;;;18.00;98.80;;;;;;5053713;28;20067;-74
2021/10/07 12:24:10;;;;;;;1.75;1.15;;;18.00;99.90;;;;;;5053235;28;20037;-74
2021/10/07 12:26:53;;;;;;;2.80;1.33;;;17.80;99.90;;;;;;5054041;28;20584;-75
2021/10/07 12:29:24;;;;;;;4.97;1.85;;;17.30;99.90;;;;;;5054152;28;20429;-75
2021/10/07 12:32:03;;;;;;;3.35;1.35;;;16.90;99.90;;;;;;5053741;28;20037;-75
2021/10/07 12:34:40;;;;;;;3.75;1.77;;;17.20;99.90;;;;;;5053471;28;20035;-75
2021/10/07 12:37:09;;;;;;;3.03;1.60;;;17.10;99.90;;;;;;5068908;28;20045;-75
2021/10/07 12:39:50;;;;;;;6.22;1.80;;;16.80;99.90;;;;;;5053671;28;20029;-75
2021/10/07 12:42:18;;;;;;;3.03;1.83;;;17.20;99.90;;;;;;5053255;28;20029;-75
2021/10/07 12:44:54;;;;;;;3.58;2.42;;;16.80;99.90;;;;;;5053828;28;20041;-75
2021/10/07 12:47:28;;;;;;;3.55;2.22;;;16.70;99.90;;;;;;5053324;28;20116;-75